Estación Meteorológica Peña el Pijo (Robertgarden) [ 02/19/19 22:02:00 CET ]

Fecha Hora Presion(HPa) Temp (°C) Humedad % Rocio (°C) Viento ( m/s) Direccion Lluvia 1Hora(mm) Lluvia 24H(mm) LLuvia Total(mm)
2019-Feb-19 01:01:54 1008.500 0.5 80 -2.6         183.37
2019-Feb-19 02:03:12 1008.300 0.5 81 -2.4         183.37
2019-Feb-19 03:01:45 1008.000 0.5 82 -2.2         183.37
2019-Feb-19 04:01:41 1008.400 0.4 83 -2.2         183.37
2019-Feb-19 05:01:51 1008.100 0.1 84 -2.3         183.37
2019-Feb-19 06:01:54 1008.000 -0.1 84 -2.5         183.37
2019-Feb-19 07:01:46 1008.000 -0.1 84 -2.5         183.37
2019-Feb-19 08:01:36 1007.900 -0.6 84 -3.0         183.37
2019-Feb-19 09:01:49 1008.300 0.4 85 -1.8         183.37
2019-Feb-19 10:01:44 1008.600 5.4 83 2.7         183.37
2019-Feb-19 11:01:48 1008.200 10.6 63 3.8         183.37
2019-Feb-19 12:01:47 1008.300 14.2 47 3.0         183.37
2019-Feb-19 13:01:52 1007.800 14.8 41 1.6         183.37
2019-Feb-19 14:01:54 1007.300 15.0 39 1.1         183.37
2019-Feb-19 15:01:49 1006.900 15.3 40 1.8         183.37
2019-Feb-19 16:01:47 1006.800 13.6 41 0.6         183.37
2019-Feb-19 17:01:50 1006.500 12.8 44 0.8         183.37
2019-Feb-19 18:01:32 1006.900 11.5 47 0.5         183.37
2019-Feb-19 19:01:35 1007.700 8.8 52 -0.6         183.37
2019-Feb-19 20:01:56 1008.700 5.8 58 -1.9         183.37
2019-Feb-19 21:01:38 1009.100 3.6 64 -2.6         183.37

Temperatura Máxima:15°    Temperatura Mínima:
Presión Máxima:1009.100 Hpa    Presión Mínima:1006.500 Hpa


Volver